sensor_id;sensor_type;location;lat;lon;timestamp;P1;durP1;ratioP1;P2;durP2;ratioP2
11524;SDS011;5819;49.648;8.330;2022-11-15T00:02:09;14.30;;;9.57;;
11524;SDS011;5819;49.648;8.330;2022-11-15T00:04:55;11.95;;;9.13;;
11524;SDS011;5819;49.648;8.330;2022-11-15T00:07:44;9.80;;;8.77;;
11524;SDS011;5819;49.648;8.330;2022-11-15T00:10:39;12.30;;;8.70;;
11524;SDS011;5819;49.648;8.330;2022-11-15T00:13:25;9.77;;;7.22;;
11524;SDS011;5819;49.648;8.330;2022-11-15T00:16:13;11.02;;;8.27;;
11524;SDS011;5819;49.648;8.330;2022-11-15T00:18:59;10.98;;;9.05;;
11524;SDS011;5819;49.648;8.330;2022-11-15T00:21:45;9.88;;;8.40;;
11524;SDS011;5819;49.648;8.330;2022-11-15T00:24:32;10.25;;;8.43;;
11524;SDS011;5819;49.648;8.330;2022-11-15T00:27:18;9.73;;;8.27;;
11524;SDS011;5819;49.648;8.330;2022-11-15T00:30:05;13.90;;;9.00;;
11524;SDS011;5819;49.648;8.330;2022-11-15T00:32:52;11.35;;;8.75;;
11524;SDS011;5819;49.648;8.330;2022-11-15T00:35:38;10.95;;;8.70;;
11524;SDS011;5819;49.648;8.330;2022-11-15T00:38:37;11.45;;;8.40;;
11524;SDS011;5819;49.648;8.330;2022-11-15T00:41:26;12.35;;;9.05;;
11524;SDS011;5819;49.648;8.330;2022-11-15T00:44:12;11.57;;;8.85;;
11524;SDS011;5819;49.648;8.330;2022-11-15T00:46:59;10.25;;;8.32;;
11524;SDS011;5819;49.648;8.330;2022-11-15T00:49:45;10.73;;;8.52;;
11524;SDS011;5819;49.648;8.330;2022-11-15T00:52:31;10.65;;;8.65;;
11524;SDS011;5819;49.648;8.330;2022-11-15T00:55:18;8.98;;;8.07;;
11524;SDS011;5819;49.648;8.330;2022-11-15T00:58:06;10.13;;;8.43;;
11524;SDS011;5819;49.648;8.330;2022-11-15T01:00:52;9.65;;;8.48;;
11524;SDS011;5819;49.648;8.330;2022-11-15T01:03:40;11.93;;;9.02;;
11524;SDS011;5819;49.648;8.330;2022-11-15T01:06:27;13.90;;;9.30;;
11524;SDS011;5819;49.648;8.330;2022-11-15T01:09:13;11.32;;;8.35;;
11524;SDS011;5819;49.648;8.330;2022-11-15T01:11:59;9.55;;;8.07;;
11524;SDS011;5819;49.648;8.330;2022-11-15T01:14:47;9.90;;;8.27;;
11524;SDS011;5819;49.648;8.330;2022-11-15T01:17:33;10.50;;;8.50;;
11524;SDS011;5819;49.648;8.330;2022-11-15T01:20:19;10.13;;;8.95;;
11524;SDS011;5819;49.648;8.330;2022-11-15T01:23:06;11.30;;;8.13;;
11524;SDS011;5819;49.648;8.330;2022-11-15T01:25:52;11.35;;;8.15;;
11524;SDS011;5819;49.648;8.330;2022-11-15T01:28:44;14.32;;;8.30;;
11524;SDS011;5819;49.648;8.330;2022-11-15T01:31:32;10.50;;;8.73;;
11524;SDS011;5819;49.648;8.330;2022-11-15T01:34:18;11.98;;;8.23;;
11524;SDS011;5819;49.648;8.330;2022-11-15T01:37:05;11.18;;;8.18;;
11524;SDS011;5819;49.648;8.330;2022-11-15T01:39:51;9.32;;;7.90;;
11524;SDS011;5819;49.648;8.330;2022-11-15T01:42:38;10.30;;;8.45;;
11524;SDS011;5819;49.648;8.330;2022-11-15T01:45:25;11.50;;;9.00;;
11524;SDS011;5819;49.648;8.330;2022-11-15T01:48:13;10.13;;;8.65;;
11524;SDS011;5819;49.648;8.330;2022-11-15T01:51:01;11.35;;;8.40;;
11524;SDS011;5819;49.648;8.330;2022-11-15T01:53:52;9.13;;;7.63;;
11524;SDS011;5819;49.648;8.330;2022-11-15T01:56:45;10.85;;;7.80;;
11524;SDS011;5819;49.648;8.330;2022-11-15T01:59:34;9.60;;;8.60;;
11524;SDS011;5819;49.648;8.330;2022-11-15T02:02:22;10.65;;;8.40;;
11524;SDS011;5819;49.648;8.330;2022-11-15T02:05:10;10.25;;;7.88;;
11524;SDS011;5819;49.648;8.330;2022-11-15T02:07:56;10.38;;;8.25;;
11524;SDS011;5819;49.648;8.330;2022-11-15T02:10:43;10.30;;;8.23;;
11524;SDS011;5819;49.648;8.330;2022-11-15T02:13:29;11.00;;;7.75;;
11524;SDS011;5819;49.648;8.330;2022-11-15T02:16:18;11.52;;;7.88;;
11524;SDS011;5819;49.648;8.330;2022-11-15T02:19:17;10.07;;;7.40;;
11524;SDS011;5819;49.648;8.330;2022-11-15T02:22:16;10.43;;;7.10;;
11524;SDS011;5819;49.648;8.330;2022-11-15T02:25:18;8.55;;;6.75;;
11524;SDS011;5819;49.648;8.330;2022-11-15T02:31:36;8.00;;;6.88;;
11524;SDS011;5819;49.648;8.330;2022-11-15T02:34:33;7.35;;;6.55;;
11524;SDS011;5819;49.648;8.330;2022-11-15T02:37:32;9.48;;;6.97;;
11524;SDS011;5819;49.648;8.330;2022-11-15T02:40:26;7.95;;;6.57;;
11524;SDS011;5819;49.648;8.330;2022-11-15T02:43:22;9.73;;;6.63;;
11524;SDS011;5819;49.648;8.330;2022-11-15T02:46:33;8.73;;;6.72;;
11524;SDS011;5819;49.648;8.330;2022-11-15T02:49:43;8.43;;;6.28;;
11524;SDS011;5819;49.648;8.330;2022-11-15T02:52:32;9.43;;;6.88;;
11524;SDS011;5819;49.648;8.330;2022-11-15T02:55:26;10.18;;;7.30;;
11524;SDS011;5819;49.648;8.330;2022-11-15T03:01:41;9.80;;;6.70;;
11524;SDS011;5819;49.648;8.330;2022-11-15T03:04:37;12.65;;;7.88;;
11524;SDS011;5819;49.648;8.330;2022-11-15T03:07:32;6.93;;;6.22;;
11524;SDS011;5819;49.648;8.330;2022-11-15T03:10:25;8.85;;;6.65;;
11524;SDS011;5819;49.648;8.330;2022-11-15T03:13:21;10.57;;;6.88;;
11524;SDS011;5819;49.648;8.330;2022-11-15T03:16:15;11.18;;;7.25;;
11524;SDS011;5819;49.648;8.330;2022-11-15T03:19:09;10.52;;;7.15;;
11524;SDS011;5819;49.648;8.330;2022-11-15T03:21:59;9.38;;;6.90;;
11524;SDS011;5819;49.648;8.330;2022-11-15T03:24:50;10.10;;;6.80;;
11524;SDS011;5819;49.648;8.330;2022-11-15T03:27:40;8.82;;;6.97;;
11524;SDS011;5819;49.648;8.330;2022-11-15T03:30:32;10.95;;;7.13;;
11524;SDS011;5819;49.648;8.330;2022-11-15T03:33:20;7.47;;;6.68;;
11524;SDS011;5819;49.648;8.330;2022-11-15T03:36:09;9.10;;;6.47;;
11524;SDS011;5819;49.648;8.330;2022-11-15T03:38:56;7.78;;;6.32;;
11524;SDS011;5819;49.648;8.330;2022-11-15T03:41:48;8.43;;;6.35;;
11524;SDS011;5819;49.648;8.330;2022-11-15T03:44:40;7.28;;;6.18;;
11524;SDS011;5819;49.648;8.330;2022-11-15T03:47:32;9.55;;;6.30;;
11524;SDS011;5819;49.648;8.330;2022-11-15T03:50:22;8.93;;;6.15;;
11524;SDS011;5819;49.648;8.330;2022-11-15T03:53:11;8.98;;;6.90;;
11524;SDS011;5819;49.648;8.330;2022-11-15T03:55:58;8.57;;;6.30;;
11524;SDS011;5819;49.648;8.330;2022-11-15T03:58:44;7.10;;;6.10;;
11524;SDS011;5819;49.648;8.330;2022-11-15T04:01:31;7.88;;;6.07;;
11524;SDS011;5819;49.648;8.330;2022-11-15T04:04:17;7.68;;;6.30;;
11524;SDS011;5819;49.648;8.330;2022-11-15T04:07:04;7.28;;;6.22;;
11524;SDS011;5819;49.648;8.330;2022-11-15T04:09:52;7.78;;;6.43;;
11524;SDS011;5819;49.648;8.330;2022-11-15T04:12:47;7.57;;;6.80;;
11524;SDS011;5819;49.648;8.330;2022-11-15T04:15:34;7.38;;;5.80;;
11524;SDS011;5819;49.648;8.330;2022-11-15T04:18:21;8.10;;;6.20;;
11524;SDS011;5819;49.648;8.330;2022-11-15T04:21:07;6.75;;;6.05;;
11524;SDS011;5819;49.648;8.330;2022-11-15T04:24:11;9.27;;;5.65;;
11524;SDS011;5819;49.648;8.330;2022-11-15T04:26:59;7.70;;;5.60;;
11524;SDS011;5819;49.648;8.330;2022-11-15T04:29:46;7.18;;;5.75;;
11524;SDS011;5819;49.648;8.330;2022-11-15T04:32:33;8.15;;;6.70;;
11524;SDS011;5819;49.648;8.330;2022-11-15T04:35:19;9.23;;;7.35;;
11524;SDS011;5819;49.648;8.330;2022-11-15T04:38:06;8.55;;;6.40;;
11524;SDS011;5819;49.648;8.330;2022-11-15T04:40:54;10.38;;;7.05;;
11524;SDS011;5819;49.648;8.330;2022-11-15T04:43:42;8.25;;;7.22;;
11524;SDS011;5819;49.648;8.330;2022-11-15T04:46:28;8.65;;;7.13;;
11524;SDS011;5819;49.648;8.330;2022-11-15T04:49:14;7.65;;;6.38;;
11524;SDS011;5819;49.648;8.330;2022-11-15T04:52:00;7.72;;;6.30;;
11524;SDS011;5819;49.648;8.330;2022-11-15T04:54:47;10.73;;;6.63;;
11524;SDS011;5819;49.648;8.330;2022-11-15T04:57:33;7.93;;;6.60;;
11524;SDS011;5819;49.648;8.330;2022-11-15T05:00:21;6.93;;;6.05;;
11524;SDS011;5819;49.648;8.330;2022-11-15T05:03:08;7.30;;;5.97;;
11524;SDS011;5819;49.648;8.330;2022-11-15T05:06:13;7.60;;;6.07;;
11524;SDS011;5819;49.648;8.330;2022-11-15T05:08:59;7.60;;;6.50;;
11524;SDS011;5819;49.648;8.330;2022-11-15T05:11:45;7.20;;;6.20;;
11524;SDS011;5819;49.648;8.330;2022-11-15T05:14:32;7.45;;;5.75;;
11524;SDS011;5819;49.648;8.330;2022-11-15T05:17:20;7.30;;;6.28;;
11524;SDS011;5819;49.648;8.330;2022-11-15T05:20:06;8.88;;;6.05;;
11524;SDS011;5819;49.648;8.330;2022-11-15T05:22:53;9.82;;;8.07;;
11524;SDS011;5819;49.648;8.330;2022-11-15T05:25:40;13.65;;;9.63;;
11524;SDS011;5819;49.648;8.330;2022-11-15T05:28:26;8.57;;;6.65;;
11524;SDS011;5819;49.648;8.330;2022-11-15T05:31:13;8.10;;;6.65;;
11524;SDS011;5819;49.648;8.330;2022-11-15T05:34:02;7.95;;;5.95;;
11524;SDS011;5819;49.648;8.330;2022-11-15T05:36:50;8.60;;;6.40;;
11524;SDS011;5819;49.648;8.330;2022-11-15T05:39:37;8.52;;;6.65;;
11524;SDS011;5819;49.648;8.330;2022-11-15T05:42:23;8.85;;;6.00;;
11524;SDS011;5819;49.648;8.330;2022-11-15T05:45:12;8.23;;;5.85;;
11524;SDS011;5819;49.648;8.330;2022-11-15T05:47:59;9.57;;;6.78;;
11524;SDS011;5819;49.648;8.330;2022-11-15T05:50:52;7.97;;;7.18;;
11524;SDS011;5819;49.648;8.330;2022-11-15T05:53:38;7.78;;;6.65;;
11524;SDS011;5819;49.648;8.330;2022-11-15T05:56:25;7.85;;;6.43;;
11524;SDS011;5819;49.648;8.330;2022-11-15T05:59:11;10.65;;;6.38;;
11524;SDS011;5819;49.648;8.330;2022-11-15T06:01:58;11.10;;;7.25;;
11524;SDS011;5819;49.648;8.330;2022-11-15T06:04:45;9.98;;;6.47;;
11524;SDS011;5819;49.648;8.330;2022-11-15T06:07:32;8.93;;;6.82;;
11524;SDS011;5819;49.648;8.330;2022-11-15T06:10:19;8.55;;;7.40;;
11524;SDS011;5819;49.648;8.330;2022-11-15T06:13:05;8.15;;;6.25;;
11524;SDS011;5819;49.648;8.330;2022-11-15T06:15:54;6.97;;;6.20;;
11524;SDS011;5819;49.648;8.330;2022-11-15T06:18:41;9.07;;;6.50;;
11524;SDS011;5819;49.648;8.330;2022-11-15T06:21:27;8.05;;;7.25;;
11524;SDS011;5819;49.648;8.330;2022-11-15T06:24:15;8.32;;;7.32;;
11524;SDS011;5819;49.648;8.330;2022-11-15T06:27:01;11.40;;;7.35;;
11524;SDS011;5819;49.648;8.330;2022-11-15T06:29:48;11.52;;;7.60;;
11524;SDS011;5819;49.648;8.330;2022-11-15T06:32:34;7.80;;;6.18;;
11524;SDS011;5819;49.648;8.330;2022-11-15T06:35:20;10.73;;;7.07;;
11524;SDS011;5819;49.648;8.330;2022-11-15T06:38:07;9.13;;;6.55;;
11524;SDS011;5819;49.648;8.330;2022-11-15T06:41:00;8.45;;;6.50;;
11524;SDS011;5819;49.648;8.330;2022-11-15T06:43:47;8.77;;;6.70;;
11524;SDS011;5819;49.648;8.330;2022-11-15T06:46:33;11.05;;;7.03;;
11524;SDS011;5819;49.648;8.330;2022-11-15T06:49:20;8.88;;;7.50;;
11524;SDS011;5819;49.648;8.330;2022-11-15T06:52:06;9.57;;;7.40;;
11524;SDS011;5819;49.648;8.330;2022-11-15T06:54:53;11.55;;;7.78;;
11524;SDS011;5819;49.648;8.330;2022-11-15T06:57:47;8.48;;;7.18;;
11524;SDS011;5819;49.648;8.330;2022-11-15T07:00:33;10.20;;;7.47;;
11524;SDS011;5819;49.648;8.330;2022-11-15T07:03:20;9.30;;;7.53;;
11524;SDS011;5819;49.648;8.330;2022-11-15T07:06:06;8.45;;;7.55;;
11524;SDS011;5819;49.648;8.330;2022-11-15T07:08:53;10.50;;;7.82;;
11524;SDS011;5819;49.648;8.330;2022-11-15T07:11:40;8.77;;;7.43;;
11524;SDS011;5819;49.648;8.330;2022-11-15T07:14:28;7.70;;;6.90;;
11524;SDS011;5819;49.648;8.330;2022-11-15T07:17:14;8.38;;;6.80;;
11524;SDS011;5819;49.648;8.330;2022-11-15T07:20:01;8.25;;;7.03;;
11524;SDS011;5819;49.648;8.330;2022-11-15T07:22:48;8.73;;;7.00;;
11524;SDS011;5819;49.648;8.330;2022-11-15T07:25:35;9.70;;;7.55;;
11524;SDS011;5819;49.648;8.330;2022-11-15T07:28:21;10.25;;;8.63;;
11524;SDS011;5819;49.648;8.330;2022-11-15T07:31:09;12.48;;;8.70;;
11524;SDS011;5819;49.648;8.330;2022-11-15T07:33:56;9.63;;;7.35;;
11524;SDS011;5819;49.648;8.330;2022-11-15T07:36:42;9.00;;;6.70;;
11524;SDS011;5819;49.648;8.330;2022-11-15T07:39:28;7.32;;;6.13;;
11524;SDS011;5819;49.648;8.330;2022-11-15T07:42:15;9.27;;;6.50;;
11524;SDS011;5819;49.648;8.330;2022-11-15T07:45:19;7.78;;;6.97;;
11524;SDS011;5819;49.648;8.330;2022-11-15T07:48:07;8.73;;;6.80;;
11524;SDS011;5819;49.648;8.330;2022-11-15T07:50:53;7.78;;;6.65;;
11524;SDS011;5819;49.648;8.330;2022-11-15T07:53:40;12.77;;;7.25;;
11524;SDS011;5819;49.648;8.330;2022-11-15T07:56:26;7.80;;;7.00;;
11524;SDS011;5819;49.648;8.330;2022-11-15T07:59:12;16.25;;;7.25;;
11524;SDS011;5819;49.648;8.330;2022-11-15T08:01:59;9.38;;;7.07;;
11524;SDS011;5819;49.648;8.330;2022-11-15T08:04:46;8.63;;;6.78;;
11524;SDS011;5819;49.648;8.330;2022-11-15T08:07:33;8.45;;;7.07;;
11524;SDS011;5819;49.648;8.330;2022-11-15T08:10:19;9.85;;;7.03;;
11524;SDS011;5819;49.648;8.330;2022-11-15T08:13:06;10.82;;;7.28;;
11524;SDS011;5819;49.648;8.330;2022-11-15T08:15:57;9.98;;;6.55;;
11524;SDS011;5819;49.648;8.330;2022-11-15T08:18:44;9.70;;;6.50;;
11524;SDS011;5819;49.648;8.330;2022-11-15T08:21:32;7.88;;;6.97;;
11524;SDS011;5819;49.648;8.330;2022-11-15T08:24:19;8.50;;;6.68;;
11524;SDS011;5819;49.648;8.330;2022-11-15T08:27:06;9.68;;;6.40;;
11524;SDS011;5819;49.648;8.330;2022-11-15T08:29:59;7.72;;;6.25;;
11524;SDS011;5819;49.648;8.330;2022-11-15T08:32:46;7.90;;;6.80;;
11524;SDS011;5819;49.648;8.330;2022-11-15T08:35:32;8.88;;;6.63;;
11524;SDS011;5819;49.648;8.330;2022-11-15T08:38:20;9.52;;;6.13;;
11524;SDS011;5819;49.648;8.330;2022-11-15T08:41:09;10.50;;;6.70;;
11524;SDS011;5819;49.648;8.330;2022-11-15T08:43:59;7.65;;;6.63;;
11524;SDS011;5819;49.648;8.330;2022-11-15T08:46:45;9.98;;;6.65;;
11524;SDS011;5819;49.648;8.330;2022-11-15T08:49:32;8.10;;;6.60;;
11524;SDS011;5819;49.648;8.330;2022-11-15T08:52:19;10.18;;;6.63;;
11524;SDS011;5819;49.648;8.330;2022-11-15T08:55:07;7.82;;;6.53;;
11524;SDS011;5819;49.648;8.330;2022-11-15T08:57:56;8.55;;;6.93;;
11524;SDS011;5819;49.648;8.330;2022-11-15T09:00:42;7.63;;;6.88;;
11524;SDS011;5819;49.648;8.330;2022-11-15T09:03:29;9.73;;;7.03;;
11524;SDS011;5819;49.648;8.330;2022-11-15T09:06:16;10.55;;;7.03;;
11524;SDS011;5819;49.648;8.330;2022-11-15T09:09:03;9.30;;;7.30;;
11524;SDS011;5819;49.648;8.330;2022-11-15T09:11:51;11.50;;;7.82;;
11524;SDS011;5819;49.648;8.330;2022-11-15T09:14:43;8.88;;;7.40;;
11524;SDS011;5819;49.648;8.330;2022-11-15T09:17:29;9.43;;;7.10;;
11524;SDS011;5819;49.648;8.330;2022-11-15T09:20:15;8.30;;;7.40;;
11524;SDS011;5819;49.648;8.330;2022-11-15T09:23:02;10.32;;;7.05;;
11524;SDS011;5819;49.648;8.330;2022-11-15T09:25:50;9.18;;;7.63;;
11524;SDS011;5819;49.648;8.330;2022-11-15T09:28:38;11.20;;;8.02;;
11524;SDS011;5819;49.648;8.330;2022-11-15T09:31:27;10.88;;;7.88;;
11524;SDS011;5819;49.648;8.330;2022-11-15T09:34:14;10.23;;;7.88;;
11524;SDS011;5819;49.648;8.330;2022-11-15T09:37:01;11.60;;;8.60;;
11524;SDS011;5819;49.648;8.330;2022-11-15T09:39:47;12.90;;;8.85;;
11524;SDS011;5819;49.648;8.330;2022-11-15T09:42:38;12.60;;;8.93;;
11524;SDS011;5819;49.648;8.330;2022-11-15T09:45:37;11.20;;;8.35;;
11524;SDS011;5819;49.648;8.330;2022-11-15T09:48:50;11.18;;;7.88;;
11524;SDS011;5819;49.648;8.330;2022-11-15T09:51:39;13.38;;;8.38;;
11524;SDS011;5819;49.648;8.330;2022-11-15T09:54:16;14.35;;;9.18;;
11524;SDS011;5819;49.648;8.330;2022-11-15T09:57:13;13.43;;;9.45;;
11524;SDS011;5819;49.648;8.330;2022-11-15T09:59:46;13.27;;;9.52;;
11524;SDS011;5819;49.648;8.330;2022-11-15T10:02:22;10.00;;;8.80;;
11524;SDS011;5819;49.648;8.330;2022-11-15T10:05:02;10.45;;;9.15;;
11524;SDS011;5819;49.648;8.330;2022-11-15T10:07:31;12.98;;;9.23;;
11524;SDS011;5819;49.648;8.330;2022-11-15T10:10:09;10.18;;;9.15;;
11524;SDS011;5819;49.648;8.330;2022-11-15T10:12:43;13.38;;;9.40;;
11524;SDS011;5819;49.648;8.330;2022-11-15T10:15:15;13.77;;;8.52;;
11524;SDS011;5819;49.648;8.330;2022-11-15T10:20:47;12.30;;;8.70;;
11524;SDS011;5819;49.648;8.330;2022-11-15T10:23:17;11.30;;;8.55;;
11524;SDS011;5819;49.648;8.330;2022-11-15T10:25:48;11.85;;;7.90;;
11524;SDS011;5819;49.648;8.330;2022-11-15T10:28:21;11.25;;;8.75;;
11524;SDS011;5819;49.648;8.330;2022-11-15T10:30:52;8.73;;;7.82;;
11524;SDS011;5819;49.648;8.330;2022-11-15T10:33:32;12.38;;;9.50;;
11524;SDS011;5819;49.648;8.330;2022-11-15T10:38:58;9.93;;;8.55;;
11524;SDS011;5819;49.648;8.330;2022-11-15T10:41:29;10.73;;;8.05;;
11524;SDS011;5819;49.648;8.330;2022-11-15T10:44:11;10.30;;;7.78;;
11524;SDS011;5819;49.648;8.330;2022-11-15T10:47:03;12.13;;;8.20;;
11524;SDS011;5819;49.648;8.330;2022-11-15T10:49:53;9.00;;;7.63;;
11524;SDS011;5819;49.648;8.330;2022-11-15T10:52:23;8.88;;;7.45;;
11524;SDS011;5819;49.648;8.330;2022-11-15T10:54:53;12.88;;;8.23;;
11524;SDS011;5819;49.648;8.330;2022-11-15T10:57:25;9.65;;;8.45;;
11524;SDS011;5819;49.648;8.330;2022-11-15T10:59:55;10.55;;;8.45;;
11524;SDS011;5819;49.648;8.330;2022-11-15T11:02:27;9.65;;;7.85;;
11524;SDS011;5819;49.648;8.330;2022-11-15T11:04:59;9.75;;;8.45;;
11524;SDS011;5819;49.648;8.330;2022-11-15T11:07:29;11.18;;;8.63;;
11524;SDS011;5819;49.648;8.330;2022-11-15T11:10:00;11.43;;;8.60;;
11524;SDS011;5819;49.648;8.330;2022-11-15T11:12:48;9.25;;;8.15;;
11524;SDS011;5819;49.648;8.330;2022-11-15T11:15:16;10.82;;;8.68;;
11524;SDS011;5819;49.648;8.330;2022-11-15T11:17:49;12.18;;;9.15;;
11524;SDS011;5819;49.648;8.330;2022-11-15T11:20:28;11.50;;;7.97;;
11524;SDS011;5819;49.648;8.330;2022-11-15T11:23:13;11.80;;;8.25;;
11524;SDS011;5819;49.648;8.330;2022-11-15T11:25:53;11.63;;;8.13;;
11524;SDS011;5819;49.648;8.330;2022-11-15T11:28:41;10.40;;;8.15;;
11524;SDS011;5819;49.648;8.330;2022-11-15T11:31:20;10.02;;;7.53;;
11524;SDS011;5819;49.648;8.330;2022-11-15T11:34:00;11.23;;;8.30;;
11524;SDS011;5819;49.648;8.330;2022-11-15T11:36:38;10.02;;;8.20;;
11524;SDS011;5819;49.648;8.330;2022-11-15T11:39:16;9.18;;;8.15;;
11524;SDS011;5819;49.648;8.330;2022-11-15T11:41:55;9.65;;;7.07;;
11524;SDS011;5819;49.648;8.330;2022-11-15T11:44:32;9.80;;;7.90;;
11524;SDS011;5819;49.648;8.330;2022-11-15T11:47:07;11.60;;;8.38;;
11524;SDS011;5819;49.648;8.330;2022-11-15T11:49:40;9.23;;;7.60;;
11524;SDS011;5819;49.648;8.330;2022-11-15T11:52:15;10.20;;;7.68;;
11524;SDS011;5819;49.648;8.330;2022-11-15T11:54:48;9.35;;;7.63;;
11524;SDS011;5819;49.648;8.330;2022-11-15T11:57:25;11.60;;;8.15;;
11524;SDS011;5819;49.648;8.330;2022-11-15T12:00:02;8.73;;;7.53;;
11524;SDS011;5819;49.648;8.330;2022-11-15T12:02:38;9.30;;;8.10;;
11524;SDS011;5819;49.648;8.330;2022-11-15T12:05:10;11.45;;;7.80;;
11524;SDS011;5819;49.648;8.330;2022-11-15T12:07:45;16.92;;;9.40;;
11524;SDS011;5819;49.648;8.330;2022-11-15T12:10:17;13.60;;;8.68;;
11524;SDS011;5819;49.648;8.330;2022-11-15T12:12:53;11.85;;;8.18;;
11524;SDS011;5819;49.648;8.330;2022-11-15T12:15:26;10.23;;;9.00;;
11524;SDS011;5819;49.648;8.330;2022-11-15T12:17:58;8.23;;;7.43;;
11524;SDS011;5819;49.648;8.330;2022-11-15T12:20:29;10.98;;;7.25;;
11524;SDS011;5819;49.648;8.330;2022-11-15T12:23:03;8.73;;;6.65;;
11524;SDS011;5819;49.648;8.330;2022-11-15T12:25:38;6.95;;;6.25;;
11524;SDS011;5819;49.648;8.330;2022-11-15T12:28:13;9.20;;;6.45;;
11524;SDS011;5819;49.648;8.330;2022-11-15T12:30:48;8.57;;;5.13;;
11524;SDS011;5819;49.648;8.330;2022-11-15T12:33:30;6.07;;;5.18;;
11524;SDS011;5819;49.648;8.330;2022-11-15T12:36:02;8.68;;;5.00;;
11524;SDS011;5819;49.648;8.330;2022-11-15T12:41:21;7.47;;;4.65;;
11524;SDS011;5819;49.648;8.330;2022-11-15T12:43:50;6.47;;;4.60;;
11524;SDS011;5819;49.648;8.330;2022-11-15T12:46:20;7.05;;;5.45;;
11524;SDS011;5819;49.648;8.330;2022-11-15T12:49:07;7.57;;;5.10;;
11524;SDS011;5819;49.648;8.330;2022-11-15T12:57:28;5.00;;;4.25;;
11524;SDS011;5819;49.648;8.330;2022-11-15T12:59:59;5.70;;;5.10;;
11524;SDS011;5819;49.648;8.330;2022-11-15T13:02:30;4.50;;;4.10;;
11524;SDS011;5819;49.648;8.330;2022-11-15T13:08:02;7.43;;;4.10;;
11524;SDS011;5819;49.648;8.330;2022-11-15T13:10:32;7.65;;;4.00;;
11524;SDS011;5819;49.648;8.330;2022-11-15T13:13:01;4.82;;;3.75;;
11524;SDS011;5819;49.648;8.330;2022-11-15T13:15:38;6.28;;;3.80;;
11524;SDS011;5819;49.648;8.330;2022-11-15T13:18:27;6.70;;;4.00;;
11524;SDS011;5819;49.648;8.330;2022-11-15T13:20:58;5.45;;;4.00;;
11524;SDS011;5819;49.648;8.330;2022-11-15T13:23:28;5.47;;;4.07;;
11524;SDS011;5819;49.648;8.330;2022-11-15T13:28:43;5.78;;;4.28;;
11524;SDS011;5819;49.648;8.330;2022-11-15T13:31:17;6.78;;;4.47;;
11524;SDS011;5819;49.648;8.330;2022-11-15T13:33:50;5.88;;;4.10;;
11524;SDS011;5819;49.648;8.330;2022-11-15T13:36:20;4.63;;;4.18;;
11524;SDS011;5819;49.648;8.330;2022-11-15T13:38:57;6.07;;;4.05;;
11524;SDS011;5819;49.648;8.330;2022-11-15T13:41:28;7.43;;;3.72;;
11524;SDS011;5819;49.648;8.330;2022-11-15T13:43:58;7.68;;;3.60;;
11524;SDS011;5819;49.648;8.330;2022-11-15T13:46:27;5.35;;;3.58;;
11524;SDS011;5819;49.648;8.330;2022-11-15T13:48:56;5.88;;;4.20;;
11524;SDS011;5819;49.648;8.330;2022-11-15T13:51:36;4.30;;;3.88;;
11524;SDS011;5819;49.648;8.330;2022-11-15T13:54:10;7.53;;;3.78;;
11524;SDS011;5819;49.648;8.330;2022-11-15T13:56:49;4.82;;;3.60;;
11524;SDS011;5819;49.648;8.330;2022-11-15T13:59:24;8.65;;;4.07;;
11524;SDS011;5819;49.648;8.330;2022-11-15T14:01:53;7.28;;;4.20;;
11524;SDS011;5819;49.648;8.330;2022-11-15T14:04:22;5.28;;;3.78;;
11524;SDS011;5819;49.648;8.330;2022-11-15T14:06:53;5.03;;;3.63;;
11524;SDS011;5819;49.648;8.330;2022-11-15T14:09:27;4.00;;;3.30;;
11524;SDS011;5819;49.648;8.330;2022-11-15T14:12:00;5.32;;;3.22;;
11524;SDS011;5819;49.648;8.330;2022-11-15T14:14:30;5.95;;;3.95;;
11524;SDS011;5819;49.648;8.330;2022-11-15T14:16:58;8.35;;;4.22;;
11524;SDS011;5819;49.648;8.330;2022-11-15T14:19:35;8.02;;;4.07;;
11524;SDS011;5819;49.648;8.330;2022-11-15T14:22:08;6.22;;;3.70;;
11524;SDS011;5819;49.648;8.330;2022-11-15T14:24:44;4.90;;;3.90;;
11524;SDS011;5819;49.648;8.330;2022-11-15T14:27:21;5.90;;;4.28;;
11524;SDS011;5819;49.648;8.330;2022-11-15T14:29:51;8.15;;;3.85;;
11524;SDS011;5819;49.648;8.330;2022-11-15T14:32:20;5.32;;;3.70;;
11524;SDS011;5819;49.648;8.330;2022-11-15T14:34:49;5.20;;;3.85;;
11524;SDS011;5819;49.648;8.330;2022-11-15T14:37:22;5.53;;;4.10;;
11524;SDS011;5819;49.648;8.330;2022-11-15T14:39:52;6.35;;;4.05;;
11524;SDS011;5819;49.648;8.330;2022-11-15T14:42:22;6.65;;;3.72;;
11524;SDS011;5819;49.648;8.330;2022-11-15T14:44:51;5.60;;;4.00;;
11524;SDS011;5819;49.648;8.330;2022-11-15T14:47:19;5.07;;;3.72;;
11524;SDS011;5819;49.648;8.330;2022-11-15T14:49:47;5.45;;;4.40;;
11524;SDS011;5819;49.648;8.330;2022-11-15T14:52:24;5.80;;;4.07;;
11524;SDS011;5819;49.648;8.330;2022-11-15T14:54:58;9.75;;;4.35;;
11524;SDS011;5819;49.648;8.330;2022-11-15T14:57:29;9.90;;;4.22;;
11524;SDS011;5819;49.648;8.330;2022-11-15T14:59:57;8.27;;;4.05;;
11524;SDS011;5819;49.648;8.330;2022-11-15T15:02:37;6.60;;;4.70;;
11524;SDS011;5819;49.648;8.330;2022-11-15T15:05:12;5.50;;;3.80;;
11524;SDS011;5819;49.648;8.330;2022-11-15T15:07:42;4.65;;;3.83;;
11524;SDS011;5819;49.648;8.330;2022-11-15T15:10:10;5.38;;;3.90;;
11524;SDS011;5819;49.648;8.330;2022-11-15T15:13:00;6.35;;;4.18;;
11524;SDS011;5819;49.648;8.330;2022-11-15T15:15:31;9.55;;;4.20;;
11524;SDS011;5819;49.648;8.330;2022-11-15T15:18:00;6.70;;;4.20;;
11524;SDS011;5819;49.648;8.330;2022-11-15T15:20:29;6.50;;;5.03;;
11524;SDS011;5819;49.648;8.330;2022-11-15T15:22:57;7.30;;;5.60;;
11524;SDS011;5819;49.648;8.330;2022-11-15T15:25:26;6.68;;;4.88;;
11524;SDS011;5819;49.648;8.330;2022-11-15T15:27:56;7.80;;;5.20;;
11524;SDS011;5819;49.648;8.330;2022-11-15T15:30:27;9.57;;;6.15;;
11524;SDS011;5819;49.648;8.330;2022-11-15T15:32:56;6.20;;;5.18;;
11524;SDS011;5819;49.648;8.330;2022-11-15T15:35:26;7.18;;;5.40;;
11524;SDS011;5819;49.648;8.330;2022-11-15T15:37:57;10.30;;;5.40;;
11524;SDS011;5819;49.648;8.330;2022-11-15T15:40:27;6.85;;;4.47;;
11524;SDS011;5819;49.648;8.330;2022-11-15T15:42:55;6.90;;;4.57;;
11524;SDS011;5819;49.648;8.330;2022-11-15T15:45:25;6.05;;;4.00;;
11524;SDS011;5819;49.648;8.330;2022-11-15T15:47:54;9.95;;;4.60;;
11524;SDS011;5819;49.648;8.330;2022-11-15T15:50:23;7.03;;;4.47;;
11524;SDS011;5819;49.648;8.330;2022-11-15T15:52:53;8.20;;;4.35;;
11524;SDS011;5819;49.648;8.330;2022-11-15T15:55:22;8.27;;;4.72;;
11524;SDS011;5819;49.648;8.330;2022-11-15T15:57:51;5.82;;;4.55;;
11524;SDS011;5819;49.648;8.330;2022-11-15T16:00:19;5.20;;;3.72;;
11524;SDS011;5819;49.648;8.330;2022-11-15T16:02:51;6.95;;;4.95;;
11524;SDS011;5819;49.648;8.330;2022-11-15T16:05:19;6.75;;;4.30;;
11524;SDS011;5819;49.648;8.330;2022-11-15T16:07:48;5.00;;;4.35;;
11524;SDS011;5819;49.648;8.330;2022-11-15T16:10:20;4.78;;;4.18;;
11524;SDS011;5819;49.648;8.330;2022-11-15T16:12:51;6.93;;;4.75;;
11524;SDS011;5819;49.648;8.330;2022-11-15T16:15:21;7.15;;;4.65;;
11524;SDS011;5819;49.648;8.330;2022-11-15T16:21:10;6.40;;;4.15;;
11524;SDS011;5819;49.648;8.330;2022-11-15T16:23:44;6.50;;;4.18;;
11524;SDS011;5819;49.648;8.330;2022-11-15T16:26:14;5.75;;;3.97;;
11524;SDS011;5819;49.648;8.330;2022-11-15T16:28:47;6.30;;;4.22;;
11524;SDS011;5819;49.648;8.330;2022-11-15T16:31:15;5.47;;;3.97;;
11524;SDS011;5819;49.648;8.330;2022-11-15T16:33:47;5.78;;;4.28;;
11524;SDS011;5819;49.648;8.330;2022-11-15T16:36:21;6.60;;;5.10;;
11524;SDS011;5819;49.648;8.330;2022-11-15T16:38:55;9.18;;;4.65;;
11524;SDS011;5819;49.648;8.330;2022-11-15T16:41:25;7.13;;;4.85;;
11524;SDS011;5819;49.648;8.330;2022-11-15T16:43:53;8.23;;;5.50;;
11524;SDS011;5819;49.648;8.330;2022-11-15T16:46:21;7.32;;;5.25;;
11524;SDS011;5819;49.648;8.330;2022-11-15T16:48:50;6.63;;;5.78;;
11524;SDS011;5819;49.648;8.330;2022-11-15T16:51:21;19.73;;;16.38;;
11524;SDS011;5819;49.648;8.330;2022-11-15T16:53:49;21.73;;;16.00;;
11524;SDS011;5819;49.648;8.330;2022-11-15T16:56:19;8.32;;;7.53;;
11524;SDS011;5819;49.648;8.330;2022-11-15T16:58:51;8.50;;;6.65;;